METAR Data
IDs: Format: Raw Decoded Include TAF

Data at: 0237 UTC 12 May 2021

KLWD 120153Z AUTO 07003KT 10SM CLR 11/02 A3033 RMK AO2 SLP273 T01060017
KLWD 120053Z AUTO 08004KT 10SM CLR 12/01 A3032 RMK AO2 SLP269 T01220011
KLWD 112353Z AUTO VRB04KT 10SM FEW060 13/01 A3030 RMK AO2 SLP266 T01330011 10156 20133 53006
KLWD 112253Z AUTO 07004KT 10SM FEW060 14/01 A3028 RMK AO2 SLP258 T01390011
KLWD 112153Z AUTO 06008G18KT 10SM SCT060 14/02 A3029 RMK AO2 SLP258 T01440017
KLWD 112053Z AUTO 09008KT 10SM FEW060 15/02 A3028 RMK AO2 SLP257 T01500017 55003
KLWD 111953Z AUTO 08008G16KT 10SM SCT060 15/02 A3028 RMK AO2 SLP257 T01500017
KLWD 111853Z AUTO 05009G19KT 020V090 10SM FEW055 15/02 A3028 RMK AO2 SLP255 T01500022
KLWD 111753Z AUTO 09007G17KT 10SM FEW050 14/02 A3029 RMK AO2 SLP261 T01390022 10144 20061 58012
KLWD 111653Z AUTO 08008G17KT 10SM FEW044 14/03 A3031 RMK AO2 SLP266 T01390028
KLWD 111553Z AUTO 05008G19KT 10SM CLR 13/04 A3033 RMK AO2 SLP272 T01280039
KLWD 111453Z AUTO 07010G17KT 10SM CLR 12/04 A3033 RMK AO2 SLP273 T01170044 53017
KLWD 111353Z AUTO 06009KT 10SM CLR 10/06 A3032 RMK AO2 SLP270 T01000056
KLWD 111253Z AUTO 06007KT 10SM CLR 08/04 A3029 RMK AO2 SLP259 T00830044
KLWD 111153Z AUTO 03007KT 10SM CLR 06/03 A3028 RMK AO2 SLP256 T00610033 10089 20056 53014
KLWD 111053Z AUTO 03005KT 10SM CLR 06/02 A3026 RMK AO2 SLP251 T00560022
KLWD 110953Z AUTO 05008KT 10SM CLR 07/03 A3024 RMK AO2 SLP243 T00720028
KLWD 110853Z AUTO 05009KT 10SM CLR 08/03 A3024 RMK AO2 SLP241 T00780033 51011
KLWD 110753Z AUTO 04008KT 10SM CLR 08/04 A3023 RMK AO2 SLP238 T00830039
KLWD 110653Z AUTO 04008KT 10SM CLR 08/04 A3022 RMK AO2 SLP235 T00830039
KLWD 110553Z AUTO 03009KT 10SM CLR 08/04 A3020 RMK AO2 SLP229 T00830044 10156 20078 401720039 53014
KLWD 110453Z AUTO 35006KT 10SM CLR 08/02 A3018 RMK AO2 SLP222 T00830022
KLWD 110353Z AUTO 33003KT 10SM CLR 09/04 A3018 RMK AO2 SLP221 T00890039
KLWD 110253Z AUTO 00000KT 10SM CLR 11/03 A3016 RMK AO2 SLP215 T01110028 53014
KLWD 110153Z AUTO 36004KT 10SM FEW085 12/03 A3014 RMK AO2 SLP209 T01170028
KLWD 110053Z AUTO 34004KT 10SM SCT085 14/04 A3013 RMK AO2 SLP204 T01390039
KLWD 102353Z AUTO 36005KT 10SM BKN085 15/04 A3012 RMK AO2 SLP202 T01500039 10172 20150 55001
KLWD 102253Z AUTO 01008KT 10SM BKN060 OVC075 16/03 A3011 RMK AO2 SLP200 T01560033
KLWD 102153Z AUTO 27008KT 10SM CLR 17/03 A3011 RMK AO2 SLP196 T01720033
KLWD 102053Z AUTO 29006KT 10SM SCT075 16/04 A3012 RMK AO2 SLP202 T01610044 56010
KLWD 101953Z AUTO 31009KT 10SM FEW050 BKN070 16/04 A3013 RMK AO2 SLP204 T01560044
KLWD 101853Z AUTO 30010KT 10SM SCT055 BKN065 16/04 A3013 RMK AO2 SLP206 T01610044
KLWD 101753Z AUTO 29007KT 10SM SCT055 16/05 A3015 RMK AO2 SLP211 T01610050 10167 20044 50000
KLWD 101653Z AUTO 30008KT 10SM SCT049 15/04 A3016 RMK AO2 SLP217 T01500039
KLWD 101553Z AUTO 32008KT 10SM CLR 15/03 A3015 RMK AO2 SLP213 T01500033
KLWD 101453Z AUTO 29004KT 10SM CLR 13/06 A3015 RMK AO2 SLP211 T01330056 50003